Time;durP1;ratioP1;P1;durP2;ratioP2;P2;SDS_P1;SDS_P2;PMS_P1;PMS_P2;Temp;Humidity;BMP_temperature;BMP_pressure;BME280_temperature;BME280_humidity;BME280_pressure;Samples;Min_cycle;Max_cycle;Signal;HPM_P1;HPM_P2
2023/09/19 00:00:26;;;;;;;2.95;0.68;;;19.60;63.90;21.30;100534.00;;;;5020664;28;20201;-78
2023/09/19 00:02:54;;;;;;;1.77;0.70;;;19.60;64.10;21.30;100543.00;;;;5028011;28;20224;-78
2023/09/19 00:05:23;;;;;;;2.72;0.63;;;19.60;64.30;21.30;100533.00;;;;5030774;28;20654;-78
2023/09/19 00:07:54;;;;;;;1.55;0.70;;;19.50;64.30;21.20;100552.00;;;;5031644;28;20201;-77
2023/09/19 00:10:24;;;;;;;2.97;0.95;;;19.50;64.40;21.20;100559.00;;;;5028590;28;20200;-78
2023/09/19 00:12:52;;;;;;;3.17;0.70;;;19.50;64.40;21.20;100549.00;;;;5031110;28;20290;-78
2023/09/19 00:15:21;;;;;;;4.03;0.98;;;19.50;64.40;21.20;100552.00;;;;5030393;28;20258;-77
2023/09/19 00:17:48;;;;;;;4.97;1.20;;;19.50;64.70;21.20;100550.00;;;;5030691;28;20199;-78
2023/09/19 00:20:17;;;;;;;10.05;0.95;;;19.50;64.70;21.10;100553.00;;;;5029853;28;20242;-78
2023/09/19 00:22:45;;;;;;;3.22;0.77;;;19.40;64.70;21.10;100554.00;;;;5029821;28;20224;-78
2023/09/19 00:25:15;;;;;;;1.48;0.60;;;19.40;64.90;21.20;100563.00;;;;5024072;28;20197;-78
2023/09/19 00:27:43;;;;;;;1.73;0.77;;;19.40;65.00;21.20;100556.00;;;;5030189;28;20720;-78
2023/09/19 00:30:15;;;;;;;1.55;0.60;;;19.40;65.10;21.10;100556.00;;;;5029077;28;20204;-77
2023/09/19 00:32:44;;;;;;;4.35;0.90;;;19.40;65.20;21.10;100565.00;;;;5029370;28;20283;-77
2023/09/19 00:35:11;;;;;;;2.95;0.77;;;19.40;65.10;21.10;100563.00;;;;5028442;28;20288;-77
2023/09/19 00:37:40;;;;;;;3.00;0.63;;;19.40;65.10;21.10;100570.00;;;;5025089;28;20646;-78
2023/09/19 00:40:11;;;;;;;1.75;0.40;;;19.40;65.20;21.10;100572.00;;;;5029845;28;20189;-78
2023/09/19 00:42:40;;;;;;;2.08;0.80;;;19.40;65.20;21.10;100565.00;;;;5027809;28;20220;-78
2023/09/19 00:45:11;;;;;;;3.85;0.73;;;19.40;65.30;21.10;100565.00;;;;5013646;28;20532;-78
2023/09/19 00:47:39;;;;;;;2.83;0.80;;;19.40;65.30;21.10;100565.00;;;;5024546;28;20197;-78
2023/09/19 00:50:11;;;;;;;4.18;0.88;;;19.40;65.30;21.10;100566.00;;;;5029027;28;20196;-78
2023/09/19 00:52:39;;;;;;;1.65;0.75;;;19.40;65.40;21.10;100573.00;;;;5030045;28;20207;-78
2023/09/19 00:55:08;;;;;;;3.58;0.77;;;19.40;65.30;21.10;100566.00;;;;5029690;28;20696;-78
2023/09/19 00:57:38;;;;;;;1.98;0.80;;;19.40;65.30;21.10;100574.00;;;;5029428;28;20258;-78
2023/09/19 01:00:08;;;;;;;4.90;1.42;;;19.40;65.50;21.10;100573.00;;;;5024335;28;20271;-78
2023/09/19 01:02:37;;;;;;;2.42;0.75;;;19.40;65.50;21.10;100580.00;;;;5014277;28;20278;-78
2023/09/19 01:05:05;;;;;;;4.75;0.95;;;19.40;65.50;21.10;100573.00;;;;5030118;28;20207;-78
2023/09/19 01:07:34;;;;;;;4.55;1.20;;;19.40;65.50;21.10;100583.00;;;;5029169;28;20323;-78
2023/09/19 01:10:05;;;;;;;1.60;0.75;;;19.40;65.70;21.10;100587.00;;;;5027781;28;20254;-78
2023/09/19 01:12:46;;;;;;;3.88;0.80;;;19.40;65.80;21.00;100587.00;;;;5029680;28;20235;-78
2023/09/19 01:15:22;;;;;;;1.90;1.00;;;19.40;65.90;21.10;100587.00;;;;5027155;28;20212;-78
2023/09/19 01:17:56;;;;;;;1.73;1.15;;;19.40;65.80;21.10;100586.00;;;;5029179;28;20192;-77
2023/09/19 01:20:39;;;;;;;2.40;0.85;;;19.40;65.90;21.00;100586.00;;;;5027928;28;20868;-78
2023/09/19 01:23:16;;;;;;;2.67;1.00;;;19.40;66.00;21.00;100586.00;;;;5024154;28;20720;-78
2023/09/19 01:26:08;;;;;;;2.10;0.70;;;19.50;66.00;21.00;100592.00;;;;5025622;28;20238;-78
2023/09/19 01:28:55;;;;;;;3.67;0.80;;;19.40;66.80;21.00;100596.00;;;;5017793;28;20210;-78
2023/09/19 01:31:29;;;;;;;3.95;1.55;;;19.50;66.30;21.10;100595.00;;;;5026663;28;20219;-77
2023/09/19 01:34:00;;;;;;;3.80;1.00;;;19.50;66.00;21.10;100593.00;;;;5026886;28;20317;-78
2023/09/19 01:36:35;;;;;;;3.38;1.40;;;19.50;65.90;21.10;100587.00;;;;5026785;28;20258;-78
2023/09/19 01:39:10;;;;;;;5.22;1.38;;;19.50;66.00;21.10;100583.00;;;;5027871;28;20234;-78
2023/09/19 01:42:04;;;;;;;3.38;0.90;;;19.50;65.80;21.00;100588.00;;;;5028033;28;20211;-77
2023/09/19 01:44:45;;;;;;;3.97;1.50;;;19.50;66.10;21.00;100598.00;;;;5026611;28;20345;-77
2023/09/19 01:47:23;;;;;;;4.18;1.10;;;19.50;65.90;21.00;100596.00;;;;5027224;28;20207;-78
2023/09/19 01:50:04;;;;;;;2.38;1.10;;;19.50;65.90;21.00;100598.00;;;;5028261;28;20211;-78
2023/09/19 01:52:40;;;;;;;5.20;1.58;;;19.40;65.80;21.00;100600.00;;;;5026791;28;20575;-78
2023/09/19 01:55:14;;;;;;;2.63;0.77;;;19.40;65.70;21.00;100603.00;;;;5029574;28;20265;-78
2023/09/19 01:57:51;;;;;;;2.20;1.15;;;19.40;65.70;21.00;100602.00;;;;5027615;28;20665;-78
2023/09/19 02:00:23;;;;;;;6.22;0.82;;;19.40;65.80;21.00;100603.00;;;;5021161;28;20196;-77
2023/09/19 02:02:53;;;;;;;3.38;1.17;;;19.40;65.70;21.00;100604.00;;;;5027247;28;20224;-78
2023/09/19 02:05:27;;;;;;;2.88;0.80;;;19.30;65.60;20.90;100601.00;;;;5028072;28;20204;-77
2023/09/19 02:07:55;;;;;;;3.20;1.10;;;19.30;65.80;21.00;100617.00;;;;5028117;28;20204;-78
2023/09/19 02:10:23;;;;;;;1.65;0.90;;;19.40;65.70;21.00;100617.00;;;;5024011;28;20208;-78
2023/09/19 02:12:51;;;;;;;2.97;1.05;;;19.30;65.40;21.00;100615.00;;;;5025802;28;20197;-77
2023/09/19 02:15:19;;;;;;;4.18;1.23;;;19.30;65.40;20.90;100612.00;;;;5021478;28;20192;-78
2023/09/19 02:17:46;;;;;;;3.65;1.00;;;19.30;65.30;20.90;100606.00;;;;5027970;28;20290;-77
2023/09/19 02:20:16;;;;;;;2.22;0.63;;;19.30;65.30;20.90;100603.00;;;;5027481;28;20200;-77
2023/09/19 02:22:44;;;;;;;4.88;1.15;;;19.30;65.20;20.90;100601.00;;;;5028996;28;20204;-77
2023/09/19 02:25:11;;;;;;;4.97;1.55;;;19.20;65.00;20.80;100607.00;;;;5021774;28;20214;-78
2023/09/19 02:27:39;;;;;;;5.60;1.38;;;19.20;65.00;20.80;100612.00;;;;5008802;28;20754;-77
2023/09/19 02:30:08;;;;;;;5.65;1.20;;;19.20;64.90;20.70;100618.00;;;;5023563;28;20200;-78
2023/09/19 02:32:38;;;;;;;3.88;1.00;;;19.10;64.80;20.70;100623.00;;;;5027348;28;20220;-78
2023/09/19 02:35:10;;;;;;;2.85;0.98;;;19.10;64.80;20.70;100624.00;;;;5028255;28;20210;-77
2023/09/19 02:37:39;;;;;;;7.47;1.30;;;19.10;64.80;20.70;100618.00;;;;5028520;28;20231;-77
2023/09/19 02:40:18;;;;;;;4.75;0.90;;;19.10;64.80;20.60;100626.00;;;;5027277;28;20200;-78
2023/09/19 02:42:49;;;;;;;2.75;1.20;;;19.00;64.90;20.60;100622.00;;;;5020289;28;20287;-78
2023/09/19 02:45:18;;;;;;;3.22;1.33;;;19.00;64.70;20.60;100636.00;;;;5028647;28;20314;-78
2023/09/19 02:47:45;;;;;;;4.38;0.88;;;18.90;64.70;20.60;100625.00;;;;5028200;28;20234;-78
2023/09/19 02:50:13;;;;;;;3.58;1.02;;;18.90;64.70;20.50;100632.00;;;;5028128;28;20661;-77
2023/09/19 02:52:44;;;;;;;3.88;1.23;;;18.90;64.60;20.50;100633.00;;;;5018348;28;20212;-77
2023/09/19 02:55:12;;;;;;;3.08;1.30;;;18.90;64.60;20.40;100630.00;;;;5028468;28;20212;-77
2023/09/19 02:57:40;;;;;;;5.90;1.20;;;18.80;65.20;20.40;100626.00;;;;5027959;28;20658;-78
2023/09/19 03:00:10;;;;;;;3.15;0.98;;;18.80;64.50;20.40;100631.00;;;;5020089;28;20193;-77
2023/09/19 03:02:37;;;;;;;4.18;1.20;;;18.70;64.40;20.30;100628.00;;;;5029680;28;20199;-76
2023/09/19 03:05:07;;;;;;;6.18;1.30;;;18.70;64.40;20.30;100631.00;;;;5031730;28;20224;-77
2023/09/19 03:07:34;;;;;;;3.45;1.08;;;18.60;64.30;20.20;100630.00;;;;5032055;28;20822;-77
2023/09/19 03:10:03;;;;;;;4.22;1.17;;;18.60;64.40;20.20;100628.00;;;;5017662;28;20318;-76
2023/09/19 03:12:30;;;;;;;4.13;1.50;;;18.60;64.40;20.20;100627.00;;;;5027050;28;20246;-77
2023/09/19 03:14:57;;;;;;;4.05;1.40;;;18.50;64.20;20.10;100625.00;;;;5031733;28;20556;-77
2023/09/19 03:17:24;;;;;;;3.10;1.05;;;18.50;64.20;20.10;100616.00;;;;5024760;28;20200;-77
2023/09/19 03:19:51;;;;;;;2.72;1.00;;;18.50;64.20;20.10;100611.00;;;;5014290;28;20667;-77
2023/09/19 03:22:18;;;;;;;4.18;0.90;;;18.40;64.30;20.10;100618.00;;;;5017349;28;20199;-77
2023/09/19 03:24:46;;;;;;;4.68;1.17;;;18.40;64.20;20.00;100612.00;;;;5031890;28;20277;-77
2023/09/19 03:27:15;;;;;;;5.95;1.52;;;18.40;64.00;20.00;100614.00;;;;5031588;28;20226;-77
2023/09/19 03:29:42;;;;;;;5.07;1.25;;;18.30;63.90;19.90;100627.00;;;;5030947;28;20609;-77
2023/09/19 03:32:10;;;;;;;7.90;1.30;;;18.30;64.00;19.90;100614.00;;;;5029914;28;20483;-77
2023/09/19 03:34:42;;;;;;;3.90;0.90;;;18.30;64.10;19.90;100631.00;;;;5029895;28;20200;-76
2023/09/19 03:37:09;;;;;;;12.43;1.40;;;18.20;63.90;19.80;100624.00;;;;5030636;28;20207;-77
2023/09/19 03:39:36;;;;;;;4.80;1.60;;;18.20;63.90;19.80;100618.00;;;;5028311;28;20289;-77
2023/09/19 03:42:05;;;;;;;2.83;0.90;;;18.20;63.90;19.70;100605.00;;;;5030689;28;20674;-76
2023/09/19 03:44:33;;;;;;;3.60;0.88;;;18.10;63.80;19.70;100608.00;;;;5027863;28;20219;-77
2023/09/19 03:47:00;;;;;;;2.75;0.93;;;18.10;63.80;19.70;100596.00;;;;5030866;28;20196;-77
2023/09/19 03:49:27;;;;;;;4.15;1.50;;;18.00;63.70;19.70;100599.00;;;;5030028;28;20901;-76
2023/09/19 03:51:54;;;;;;;2.60;1.10;;;18.00;63.60;19.60;100609.00;;;;5024447;28;20197;-76
2023/09/19 03:54:21;;;;;;;4.03;1.27;;;18.00;63.70;19.60;100602.00;;;;5023973;28;20231;-76
2023/09/19 03:56:48;;;;;;;7.95;1.38;;;18.00;63.60;19.60;100607.00;;;;5030458;28;20311;-76
2023/09/19 03:59:15;;;;;;;2.35;1.10;;;17.90;63.60;19.60;100610.00;;;;5030510;28;20200;-76
2023/09/19 04:01:43;;;;;;;5.95;1.35;;;17.90;63.70;19.50;100609.00;;;;5029857;28;20208;-76
2023/09/19 04:04:10;;;;;;;3.35;1.75;;;17.90;63.60;19.50;100617.00;;;;5021551;28;20224;-77
2023/09/19 04:06:37;;;;;;;4.60;1.05;;;17.90;63.60;19.50;100627.00;;;;5021532;28;20670;-77
2023/09/19 04:09:06;;;;;;;4.15;1.30;;;17.80;63.70;19.40;100629.00;;;;5031825;28;20192;-77
2023/09/19 04:11:34;;;;;;;8.52;2.20;;;17.80;63.70;19.40;100632.00;;;;5032549;28;20278;-77
2023/09/19 04:14:04;;;;;;;5.18;1.25;;;17.80;63.80;19.40;100628.00;;;;5029182;28;20235;-77
2023/09/19 04:16:31;;;;;;;2.70;1.33;;;17.80;63.60;19.40;100632.00;;;;5030688;28;20639;-76
2023/09/19 04:18:59;;;;;;;10.57;0.93;;;17.80;63.60;19.40;100646.00;;;;5012849;28;20193;-77
2023/09/19 04:21:28;;;;;;;5.65;1.55;;;17.70;63.50;19.40;100654.00;;;;5011795;28;20208;-77
2023/09/19 04:23:54;;;;;;;3.38;0.82;;;17.70;63.60;19.40;100651.00;;;;5017345;28;20277;-77
2023/09/19 04:26:21;;;;;;;7.35;1.77;;;17.70;63.40;19.30;100655.00;;;;5030516;28;20637;-76
2023/09/19 04:28:49;;;;;;;6.88;1.92;;;17.70;63.50;19.30;100659.00;;;;5030497;28;20291;-76
2023/09/19 04:31:16;;;;;;;4.43;1.45;;;17.70;63.60;19.30;100656.00;;;;5030720;28;20228;-76
2023/09/19 04:33:44;;;;;;;4.00;1.00;;;17.70;63.50;19.30;100659.00;;;;5025032;28;20546;-76
2023/09/19 04:36:13;;;;;;;4.55;1.00;;;17.70;63.60;19.30;100668.00;;;;5024131;28;20200;-76
2023/09/19 04:38:41;;;;;;;2.92;1.02;;;17.70;63.60;19.30;100669.00;;;;5030804;28;20331;-77
2023/09/19 04:41:08;;;;;;;3.65;1.45;;;17.60;63.70;19.30;100675.00;;;;5024312;28;20211;-76
2023/09/19 04:43:35;;;;;;;2.75;1.15;;;17.70;63.90;19.30;100676.00;;;;5026208;28;20200;-77
2023/09/19 04:46:02;;;;;;;4.97;1.25;;;17.70;63.80;19.30;100680.00;;;;5029685;28;20200;-76
2023/09/19 04:48:30;;;;;;;5.25;1.23;;;17.70;63.80;19.30;100675.00;;;;5029571;28;20669;-76
2023/09/19 04:50:57;;;;;;;4.05;1.40;;;17.70;63.90;19.30;100677.00;;;;5030584;28;20295;-76
2023/09/19 04:53:25;;;;;;;4.00;1.55;;;17.70;63.80;19.30;100671.00;;;;5028950;28;20558;-77
2023/09/19 04:55:55;;;;;;;6.00;1.35;;;17.70;63.90;19.40;100671.00;;;;5028238;28;20236;-76
2023/09/19 04:58:22;;;;;;;3.88;1.10;;;17.70;63.90;19.40;100674.00;;;;5024495;28;20208;-76
2023/09/19 05:00:51;;;;;;;4.65;1.27;;;17.70;63.80;19.40;100663.00;;;;5028413;28;20231;-76
2023/09/19 05:03:19;;;;;;;6.28;1.17;;;17.70;63.60;19.30;100667.00;;;;5018129;28;20201;-76
2023/09/19 05:05:46;;;;;;;4.72;1.20;;;17.70;63.60;19.30;100669.00;;;;5027017;28;22189;-76
2023/09/19 05:08:14;;;;;;;8.45;1.15;;;17.70;63.80;19.30;100676.00;;;;5021076;28;20588;-76
2023/09/19 05:10:42;;;;;;;5.47;0.93;;;17.70;63.70;19.30;100672.00;;;;5029230;28;20641;-75
2023/09/19 05:13:10;;;;;;;3.20;1.33;;;17.70;63.70;19.30;100666.00;;;;5029337;28;20196;-77
2023/09/19 05:15:37;;;;;;;6.57;2.05;;;17.70;63.70;19.30;100682.00;;;;5027099;28;20200;-76
2023/09/19 05:18:06;;;;;;;4.75;1.25;;;17.70;63.60;19.30;100677.00;;;;5015109;28;20201;-76
2023/09/19 05:20:36;;;;;;;3.47;1.05;;;17.60;63.60;19.30;100675.00;;;;5022522;28;21009;-76
2023/09/19 05:23:07;;;;;;;3.97;1.27;;;17.60;63.60;19.30;100676.00;;;;5026971;28;20197;-76
2023/09/19 05:25:37;;;;;;;3.35;0.73;;;17.60;63.70;19.20;100677.00;;;;5026356;28;20227;-76
2023/09/19 05:28:07;;;;;;;7.38;1.92;;;17.60;63.80;19.20;100687.00;;;;5028614;28;20215;-76
2023/09/19 05:30:36;;;;;;;5.68;1.00;;;17.60;63.80;19.20;100676.00;;;;5025942;28;20215;-76
2023/09/19 05:33:04;;;;;;;5.47;1.50;;;17.60;63.80;19.20;100672.00;;;;5025953;28;20550;-75
2023/09/19 05:35:32;;;;;;;8.63;1.10;;;17.60;63.80;19.20;100683.00;;;;5025485;28;20209;-75
2023/09/19 05:37:59;;;;;;;6.90;1.17;;;17.60;63.80;19.30;100679.00;;;;5028349;28;20200;-76
2023/09/19 05:40:27;;;;;;;3.75;1.30;;;17.60;63.90;19.30;100672.00;;;;5026874;28;20200;-75
2023/09/19 05:42:54;;;;;;;4.35;1.23;;;17.60;63.90;19.30;100669.00;;;;5022969;28;20240;-76
2023/09/19 05:45:23;;;;;;;7.13;1.20;;;17.60;63.90;19.20;100679.00;;;;5024751;28;20237;-75
2023/09/19 05:47:50;;;;;;;5.32;1.42;;;17.60;63.90;19.30;100682.00;;;;5026751;28;20193;-76
2023/09/19 05:50:19;;;;;;;4.40;1.33;;;17.60;63.90;19.30;100670.00;;;;5023051;28;20197;-75
2023/09/19 05:52:53;;;;;;;5.95;1.60;;;17.70;64.00;19.20;100680.00;;;;5009795;28;20288;-76
2023/09/19 05:55:20;;;;;;;3.22;1.10;;;17.70;64.10;19.30;100684.00;;;;5014247;28;20199;-75
2023/09/19 05:57:51;;;;;;;4.78;1.20;;;17.70;64.10;19.30;100685.00;;;;5028010;28;20297;-75
2023/09/19 06:00:22;;;;;;;5.63;1.00;;;17.70;64.10;19.30;100682.00;;;;5026362;28;20185;-76
2023/09/19 06:02:53;;;;;;;2.92;1.00;;;17.70;64.10;19.30;100690.00;;;;5023827;28;20205;-76
2023/09/19 06:05:21;;;;;;;4.43;1.38;;;17.70;64.10;19.30;100691.00;;;;5026562;28;20294;-76
2023/09/19 06:07:48;;;;;;;4.50;1.17;;;17.70;64.00;19.40;100696.00;;;;5022037;28;20197;-76
2023/09/19 06:10:17;;;;;;;2.47;1.08;;;17.70;64.10;19.40;100694.00;;;;5022749;28;20206;-76
2023/09/19 06:12:44;;;;;;;3.58;1.35;;;17.80;64.10;19.40;100700.00;;;;5026464;28;20196;-76
2023/09/19 06:15:15;;;;;;;3.67;0.80;;;17.80;64.10;19.40;100707.00;;;;5012053;28;20279;-76
2023/09/19 06:17:42;;;;;;;8.18;1.60;;;17.80;64.20;19.40;100708.00;;;;5012100;28;20280;-76
2023/09/19 06:20:14;;;;;;;1.92;0.77;;;17.80;64.20;19.40;100709.00;;;;5026963;28;20208;-75
2023/09/19 06:22:42;;;;;;;5.38;1.35;;;17.80;64.30;19.40;100715.00;;;;5028421;28;20778;-76
2023/09/19 06:25:11;;;;;;;7.57;1.25;;;17.80;64.30;19.50;100716.00;;;;5028295;28;20231;-75
2023/09/19 06:27:41;;;;;;;4.82;1.08;;;17.80;64.30;19.50;100713.00;;;;5027720;28;20725;-76
2023/09/19 06:30:11;;;;;;;6.57;1.35;;;17.80;64.30;19.50;100710.00;;;;5028498;28;20275;-76
2023/09/19 06:32:38;;;;;;;2.60;1.00;;;17.90;64.50;19.50;100710.00;;;;5028008;28;20247;-75
2023/09/19 06:35:08;;;;;;;4.95;1.00;;;17.90;64.50;19.50;100710.00;;;;5027968;28;20315;-76
2023/09/19 06:37:38;;;;;;;2.67;1.00;;;17.90;64.50;19.60;100707.00;;;;5028246;28;20208;-76
2023/09/19 06:40:13;;;;;;;4.03;1.23;;;17.90;64.60;19.60;100707.00;;;;5009724;28;20777;-76
2023/09/19 06:42:41;;;;;;;3.08;0.95;;;18.00;64.70;19.60;100710.00;;;;5008835;28;20215;-75
2023/09/19 06:45:11;;;;;;;7.55;1.17;;;18.00;64.80;19.60;100706.00;;;;5016150;28;20212;-76
2023/09/19 06:47:38;;;;;;;3.63;1.08;;;18.10;64.80;19.70;100712.00;;;;5028095;28;20204;-76
2023/09/19 06:50:13;;;;;;;3.15;0.90;;;18.10;64.90;19.70;100702.00;;;;5028577;28;20200;-76
2023/09/19 06:52:42;;;;;;;7.82;1.40;;;18.10;64.90;19.70;100706.00;;;;5028447;28;20192;-76
2023/09/19 06:55:11;;;;;;;2.85;1.27;;;18.20;65.00;19.80;100708.00;;;;5027166;28;20196;-76
2023/09/19 06:57:40;;;;;;;4.85;1.58;;;18.20;65.00;19.80;100710.00;;;;5008530;28;20201;-76
2023/09/19 07:00:15;;;;;;;4.93;0.88;;;18.20;65.10;19.90;100718.00;;;;5007389;28;20550;-76
2023/09/19 07:02:42;;;;;;;6.18;1.52;;;18.30;65.80;19.90;100707.00;;;;5008668;28;20279;-76
2023/09/19 07:05:10;;;;;;;6.45;1.33;;;18.30;65.10;20.00;100706.00;;;;5008274;28;20225;-76
2023/09/19 07:07:37;;;;;;;4.80;1.00;;;18.30;65.10;20.00;100712.00;;;;5007698;28;20721;-76
2023/09/19 07:10:08;;;;;;;7.20;1.48;;;18.40;65.10;20.00;100708.00;;;;5007699;28;20211;-77
2023/09/19 07:12:35;;;;;;;7.05;1.80;;;18.50;65.10;20.10;100709.00;;;;5008178;28;20204;-76
2023/09/19 07:15:02;;;;;;;6.53;1.40;;;18.50;65.10;20.10;100707.00;;;;5008509;28;20204;-76
2023/09/19 07:17:29;;;;;;;4.57;1.25;;;18.50;65.10;20.20;100716.00;;;;5007783;28;20234;-76
2023/09/19 07:19:57;;;;;;;5.32;1.00;;;18.60;65.10;20.20;100715.00;;;;5008702;28;20200;-76
2023/09/19 07:22:24;;;;;;;4.30;1.25;;;18.60;65.10;20.30;100714.00;;;;5009356;28;20251;-76
2023/09/19 07:24:51;;;;;;;5.30;1.17;;;18.70;65.10;20.30;100722.00;;;;5007061;28;20690;-77
2023/09/19 07:27:20;;;;;;;5.63;1.20;;;18.70;65.10;20.40;100730.00;;;;4989252;28;20308;-76
2023/09/19 07:29:47;;;;;;;2.72;0.88;;;18.80;65.00;20.40;100729.00;;;;4994837;28;20205;-77
2023/09/19 07:32:14;;;;;;;5.63;1.38;;;18.80;65.00;20.50;100727.00;;;;4998908;28;20213;-76
2023/09/19 07:34:41;;;;;;;4.65;1.40;;;18.90;65.10;20.50;100731.00;;;;5002460;28;20678;-76
2023/09/19 07:37:09;;;;;;;7.97;2.15;;;18.90;64.90;20.60;100732.00;;;;5007284;28;20267;-76
2023/09/19 07:39:36;;;;;;;5.18;1.20;;;19.00;64.80;20.60;100742.00;;;;5007970;28;20204;-77
2023/09/19 07:42:03;;;;;;;7.90;1.38;;;19.00;64.80;20.60;100750.00;;;;5007688;28;20201;-76
2023/09/19 07:44:31;;;;;;;4.78;1.40;;;19.10;64.80;20.70;100742.00;;;;5007721;28;20201;-76
2023/09/19 07:46:58;;;;;;;7.60;1.42;;;19.10;64.70;20.70;100738.00;;;;4998567;28;20206;-77
2023/09/19 07:49:25;;;;;;;4.35;1.48;;;19.20;64.80;20.80;100737.00;;;;5005114;28;20192;-76
2023/09/19 07:51:53;;;;;;;2.53;1.23;;;19.20;64.90;20.90;100738.00;;;;5008816;28;20201;-76
2023/09/19 07:54:21;;;;;;;5.05;1.25;;;19.30;64.90;20.90;100735.00;;;;5000806;28;20197;-76
2023/09/19 07:56:48;;;;;;;4.72;1.33;;;19.30;64.80;21.00;100734.00;;;;5021755;28;20292;-76
2023/09/19 07:59:16;;;;;;;5.13;1.00;;;19.40;64.70;21.00;100746.00;;;;5029545;28;20196;-78
2023/09/19 08:01:44;;;;;;;9.23;1.70;;;19.40;64.60;21.00;100746.00;;;;5028937;28;20569;-77
2023/09/19 08:04:11;;;;;;;3.85;1.23;;;19.50;64.70;21.10;100743.00;;;;5026942;28;20216;-77
2023/09/19 08:06:39;;;;;;;3.90;1.17;;;19.50;64.70;21.20;100746.00;;;;5027324;28;20231;-77
2023/09/19 08:09:07;;;;;;;6.43;1.48;;;19.50;64.60;21.20;100747.00;;;;5026908;28;20197;-77
2023/09/19 08:11:34;;;;;;;4.18;1.38;;;19.60;64.50;21.30;100754.00;;;;5028357;28;20214;-77
2023/09/19 08:14:02;;;;;;;4.85;1.67;;;19.70;64.50;21.30;100745.00;;;;5026354;28;20232;-78
2023/09/19 08:16:29;;;;;;;4.85;1.40;;;19.70;65.20;21.40;100756.00;;;;5029001;28;20655;-77
2023/09/19 08:18:57;;;;;;;7.15;1.42;;;19.80;64.40;21.40;100746.00;;;;5026419;28;20199;-77
2023/09/19 08:21:26;;;;;;;9.07;1.52;;;19.80;64.50;21.50;100746.00;;;;5022833;28;20207;-77
2023/09/19 08:23:53;;;;;;;5.72;1.27;;;19.90;64.50;21.50;100743.00;;;;5022906;28;20224;-77
2023/09/19 08:26:21;;;;;;;5.13;1.10;;;19.90;64.60;21.60;100746.00;;;;5027082;28;20232;-77
2023/09/19 08:28:48;;;;;;;9.80;1.67;;;20.00;64.60;21.70;100742.00;;;;5025869;28;20262;-77
2023/09/19 08:31:17;;;;;;;7.05;1.50;;;20.10;64.40;21.70;100739.00;;;;5028687;28;20632;-77
2023/09/19 08:33:49;;;;;;;5.30;1.50;;;20.10;64.30;21.70;100749.00;;;;5026385;28;20204;-77
2023/09/19 08:36:18;;;;;;;8.73;2.22;;;20.20;64.20;21.70;100741.00;;;;5024665;28;20204;-77
2023/09/19 08:38:45;;;;;;;5.05;1.40;;;20.20;64.10;21.80;100734.00;;;;5025512;28;20215;-77
2023/09/19 08:41:12;;;;;;;8.05;1.40;;;20.20;63.90;21.80;100746.00;;;;5026838;28;20218;-77
2023/09/19 08:43:39;;;;;;;5.50;1.40;;;20.30;63.90;21.90;100744.00;;;;5027227;28;20581;-77
2023/09/19 08:46:13;;;;;;;6.55;1.48;;;20.30;63.90;21.80;100744.00;;;;5025368;28;20216;-76
2023/09/19 08:48:49;;;;;;;9.20;1.50;;;20.30;63.60;21.90;100725.00;;;;5022257;28;20207;-77
2023/09/19 08:51:27;;;;;;;5.55;1.70;;;20.40;63.50;21.90;100722.00;;;;5022766;28;20238;-77
2023/09/19 08:54:07;;;;;;;4.88;1.90;;;20.40;63.40;21.90;100728.00;;;;5025111;28;20768;-78
2023/09/19 08:56:36;;;;;;;4.82;1.38;;;20.40;63.30;22.00;100723.00;;;;5028220;28;20232;-78
2023/09/19 08:59:07;;;;;;;7.80;2.10;;;20.50;63.50;22.10;100724.00;;;;5019432;28;20196;-77
2023/09/19 09:01:37;;;;;;;6.05;1.20;;;20.50;63.40;22.10;100734.00;;;;5021902;28;20208;-77
2023/09/19 09:04:08;;;;;;;8.82;1.60;;;20.60;63.50;22.20;100728.00;;;;5024950;28;20624;-77
2023/09/19 09:06:39;;;;;;;5.55;1.00;;;20.70;63.50;22.30;100733.00;;;;5024148;28;20232;-77
2023/09/19 09:09:07;;;;;;;5.30;1.25;;;20.70;63.60;22.40;100729.00;;;;5019290;28;20220;-77
2023/09/19 09:11:35;;;;;;;4.70;1.52;;;20.80;63.50;22.40;100736.00;;;;5024806;28;21048;-77
2023/09/19 09:14:02;;;;;;;8.02;1.77;;;20.80;63.20;22.50;100747.00;;;;5026845;28;20200;-77
2023/09/19 09:16:31;;;;;;;6.07;1.30;;;20.90;63.00;22.50;100736.00;;;;5028447;28;20202;-78
2023/09/19 09:18:58;;;;;;;7.05;1.95;;;21.00;62.60;22.50;100733.00;;;;5028090;28;20662;-77
2023/09/19 09:21:27;;;;;;;7.13;1.65;;;21.00;62.40;22.50;100725.00;;;;5028353;28;20963;-78
2023/09/19 09:23:55;;;;;;;5.47;1.10;;;21.00;62.40;22.60;100734.00;;;;5026095;28;20208;-77
2023/09/19 09:26:43;;;;;;;5.32;1.63;;;21.10;62.30;22.50;100720.00;;;;5028876;28;20228;-77
2023/09/19 09:29:10;;;;;;;6.30;1.83;;;21.10;61.60;22.60;100729.00;;;;5023952;28;20622;-78
2023/09/19 09:31:37;;;;;;;6.47;1.65;;;21.10;61.90;22.70;100729.00;;;;5025564;28;20220;-79
2023/09/19 09:34:04;;;;;;;7.53;1.10;;;21.20;61.90;22.70;100726.00;;;;5023587;28;20193;-77
2023/09/19 09:36:36;;;;;;;6.90;2.05;;;21.20;61.80;22.70;100717.00;;;;5025597;28;20203;-78
2023/09/19 09:39:18;;;;;;;5.03;1.33;;;21.20;61.70;22.80;100725.00;;;;5024739;28;20208;-78
2023/09/19 09:41:45;;;;;;;5.05;1.65;;;21.30;61.90;22.90;100723.00;;;;5023718;28;20196;-77
2023/09/19 09:44:19;;;;;;;7.40;1.50;;;21.30;61.90;22.90;100727.00;;;;5023360;28;20200;-78
2023/09/19 09:49:33;;;;;;;4.47;1.35;;;21.50;61.80;23.10;100715.00;;;;5023507;28;20203;-77
2023/09/19 09:52:06;;;;;;;7.32;1.52;;;21.50;61.70;23.10;100709.00;;;;5025927;28;20600;-77
2023/09/19 09:54:37;;;;;;;8.30;1.40;;;21.60;61.70;23.20;100714.00;;;;5024582;28;20655;-77
2023/09/19 09:57:14;;;;;;;4.25;1.60;;;21.70;61.30;23.30;100719.00;;;;5025114;28;20236;-78
2023/09/19 09:59:50;;;;;;;5.47;1.60;;;21.80;61.70;23.30;100712.00;;;;5026298;28;20196;-77
2023/09/19 10:02:24;;;;;;;5.38;1.42;;;21.80;61.90;23.50;100709.00;;;;5023724;28;20196;-78
2023/09/19 10:05:09;;;;;;;3.97;1.33;;;21.90;61.20;23.60;100715.00;;;;5024446;28;20204;-77
2023/09/19 10:07:42;;;;;;;4.45;1.60;;;22.00;61.40;23.70;100714.00;;;;5027094;28;20193;-77
2023/09/19 10:10:15;;;;;;;6.38;1.45;;;22.10;61.20;23.70;100725.00;;;;5025168;28;20196;-78
2023/09/19 10:12:47;;;;;;;6.88;1.20;;;22.20;61.00;23.80;100735.00;;;;5017812;28;20199;-77
2023/09/19 10:15:20;;;;;;;4.03;1.30;;;22.30;60.90;23.80;100731.00;;;;5018539;28;20199;-77
2023/09/19 10:17:48;;;;;;;6.00;1.30;;;22.40;60.30;23.80;100726.00;;;;5024882;28;20208;-78
2023/09/19 10:20:33;;;;;;;8.63;1.70;;;22.40;60.10;23.80;100736.00;;;;5026891;28;20200;-77
2023/09/19 10:23:12;;;;;;;4.28;1.23;;;22.50;60.60;23.80;100728.00;;;;5021023;28;20213;-78
2023/09/19 10:25:45;;;;;;;6.05;1.38;;;22.50;59.50;23.80;100724.00;;;;5023204;28;20768;-77
2023/09/19 10:28:14;;;;;;;7.45;1.67;;;22.40;59.50;23.80;100720.00;;;;5018198;28;20200;-77
2023/09/19 10:30:44;;;;;;;2.78;1.10;;;22.50;59.50;23.80;100716.00;;;;5023277;28;20200;-77
2023/09/19 10:33:13;;;;;;;7.05;1.73;;;22.50;59.50;23.90;100704.00;;;;5022373;28;20206;-77
2023/09/19 10:35:43;;;;;;;7.85;2.15;;;22.40;59.50;23.90;100699.00;;;;5021154;28;20204;-77
2023/09/19 10:38:12;;;;;;;3.88;1.10;;;22.40;59.50;23.90;100704.00;;;;5019700;28;20200;-78
2023/09/19 10:40:43;;;;;;;2.50;1.10;;;22.50;59.60;23.90;100697.00;;;;5011015;28;20610;-77
2023/09/19 10:43:18;;;;;;;4.80;1.50;;;22.50;59.20;23.90;100687.00;;;;5015414;28;20829;-77
2023/09/19 10:45:49;;;;;;;4.00;1.15;;;22.50;59.30;24.00;100695.00;;;;5023055;28;20219;-77
2023/09/19 10:48:19;;;;;;;4.60;1.65;;;22.50;59.00;24.00;100689.00;;;;5021268;28;20192;-78
2023/09/19 10:50:51;;;;;;;4.07;1.63;;;22.60;59.10;24.00;100676.00;;;;5022528;28;20279;-79
2023/09/19 10:53:20;;;;;;;2.72;1.27;;;22.60;59.10;24.00;100668.00;;;;5022337;28;20218;-78
2023/09/19 10:56:00;;;;;;;5.82;1.23;;;22.60;58.80;23.90;100686.00;;;;5019003;28;20231;-77
2023/09/19 10:58:29;;;;;;;14.70;1.80;;;22.60;58.60;24.00;100683.00;;;;5019843;28;20204;-78
2023/09/19 11:01:05;;;;;;;6.20;1.83;;;22.60;58.90;24.00;100685.00;;;;5020479;28;20208;-79